Time;durP1;ratioP1;P1;durP2;ratioP2;P2;SDS_P1;SDS_P2;PMS_P1;PMS_P2;Temp;Humidity;BMP_temperature;BMP_pressure;BME280_temperature;BME280_humidity;BME280_pressure;Samples;Min_cycle;Max_cycle;Signal;HPM_P1;HPM_P2
2023/05/12 00:01:51;;;;;;;20.02;13.63;;;12.00;99.90;;;;;;7373592;19;20526;-81
2023/05/12 00:04:20;;;;;;;19.13;13.35;;;12.00;99.90;;;;;;7367273;19;20022;-81
2023/05/12 00:06:49;;;;;;;;;;;12.00;99.90;;;;;;7374405;19;20728;-81
2023/05/12 00:09:15;;;;;;;20.25;13.45;;;12.00;99.90;;;;;;7376003;19;19918;-82
2023/05/12 00:11:41;;;;;;;23.95;14.75;;;12.00;99.90;;;;;;7374718;19;20015;-81
2023/05/12 00:14:08;;;;;;;19.35;13.25;;;12.00;99.90;;;;;;7375434;19;20025;-80
2023/05/12 00:16:34;;;;;;;22.45;15.60;;;12.00;99.90;;;;;;7371572;19;21143;-80
2023/05/12 00:19:00;;;;;;;22.20;15.02;;;12.00;99.90;;;;;;7377602;19;20020;-81
2023/05/12 00:21:26;;;;;;;21.50;15.82;;;12.00;99.90;;;;;;7374307;19;20650;-80
2023/05/12 00:23:52;;;;;;;23.10;16.02;;;12.00;99.90;;;;;;7373033;19;20023;-81
2023/05/12 00:26:19;;;;;;;25.65;16.17;;;12.00;99.90;;;;;;7376310;19;20022;-81
2023/05/12 00:28:47;;;;;;;25.65;17.63;;;12.00;99.90;;;;;;7374642;19;20013;-80
2023/05/12 00:31:14;;;;;;;27.98;18.52;;;12.00;99.90;;;;;;7376469;19;20487;-81
2023/05/12 00:33:40;;;;;;;27.88;18.23;;;12.00;99.90;;;;;;7376487;19;20379;-80
2023/05/12 00:36:07;;;;;;;31.42;20.10;;;12.00;99.90;;;;;;7367734;19;20686;-80
2023/05/12 00:38:33;;;;;;;33.25;21.70;;;12.00;99.90;;;;;;7371741;19;20026;-81
2023/05/12 00:41:00;;;;;;;32.92;22.00;;;12.00;99.90;;;;;;7369065;19;20022;-80
2023/05/12 00:43:27;;;;;;;34.67;22.23;;;12.00;99.90;;;;;;7372528;19;20115;-81
2023/05/12 00:45:53;;;;;;;35.55;21.65;;;12.00;99.90;;;;;;7369990;19;20865;-81
2023/05/12 00:48:20;;;;;;;35.33;24.17;;;12.00;99.90;;;;;;7374183;19;20717;-80
2023/05/12 00:50:47;;;;;;;44.17;25.85;;;12.00;99.90;;;;;;7374215;19;20023;-81
2023/05/12 00:53:13;;;;;;;35.10;23.67;;;12.00;99.90;;;;;;7370483;19;20068;-80
2023/05/12 00:55:41;;;;;;;40.35;25.67;;;12.10;99.90;;;;;;7369464;19;20387;-81
2023/05/12 00:58:07;;;;;;;45.53;27.75;;;12.10;99.90;;;;;;7373802;19;20025;-81
2023/05/12 01:00:35;;;;;;;48.35;29.90;;;12.10;99.90;;;;;;7372938;19;20025;-81
2023/05/12 01:03:01;;;;;;;45.20;31.10;;;12.00;99.90;;;;;;7371502;19;20488;-81
2023/05/12 01:05:48;;;;;;;48.08;30.27;;;12.10;99.90;;;;;;7373459;19;20170;-81
2023/05/12 01:08:16;;;;;;;48.85;31.23;;;12.10;99.90;;;;;;7371880;19;20037;-81
2023/05/12 01:10:43;;;;;;;49.22;31.50;;;12.10;99.90;;;;;;7368907;19;20019;-81
2023/05/12 01:13:10;;;;;;;51.45;31.88;;;12.10;99.90;;;;;;7372854;19;20022;-81
2023/05/12 01:15:39;;;;;;;50.35;31.77;;;12.10;99.90;;;;;;7370695;19;20517;-81
2023/05/12 01:18:07;;;;;;;55.20;32.25;;;12.10;99.90;;;;;;7374153;19;20043;-81
2023/05/12 01:20:34;;;;;;;50.20;31.80;;;12.10;99.90;;;;;;7368064;19;21642;-80
2023/05/12 01:23:01;;;;;;;54.13;32.80;;;12.20;99.90;;;;;;7373724;19;20072;-81
2023/05/12 01:25:31;;;;;;;57.58;32.65;;;12.20;99.90;;;;;;7366632;19;20022;-82
2023/05/12 01:27:59;;;;;;;58.10;34.33;;;12.10;99.90;;;;;;7371150;19;20015;-81
2023/05/12 01:30:27;;;;;;;55.97;35.03;;;12.10;99.90;;;;;;7374938;19;20385;-82
2023/05/12 01:32:53;;;;;;;56.47;33.78;;;12.10;99.90;;;;;;7371515;19;20042;-81
2023/05/12 01:35:19;;;;;;;56.78;35.97;;;12.10;99.90;;;;;;7369692;19;20011;-81
2023/05/12 01:37:56;;;;;;;51.40;34.25;;;12.20;99.90;;;;;;7368871;19;20090;-82
2023/05/12 01:40:22;;;;;;;55.80;34.17;;;12.10;99.90;;;;;;7368144;19;20014;-82
2023/05/12 01:42:49;;;;;;;60.47;37.35;;;12.20;99.90;;;;;;7370411;19;20054;-82
2023/05/12 01:45:17;;;;;;;63.28;35.42;;;12.20;99.90;;;;;;7370321;19;20011;-81
2023/05/12 01:47:44;;;;;;;63.15;37.00;;;12.10;99.90;;;;;;7371520;19;20049;-81
2023/05/12 01:50:10;;;;;;;58.25;36.25;;;12.20;99.90;;;;;;7369151;19;20031;-81
2023/05/12 01:52:36;;;;;;;54.80;35.50;;;12.20;99.90;;;;;;7368211;19;20014;-82
2023/05/12 01:55:07;;;;;;;63.72;36.78;;;12.20;99.90;;;;;;7363314;19;20022;-81
2023/05/12 01:57:38;;;;;;;;;;;12.20;99.90;;;;;;7372026;19;20026;-82
2023/05/12 02:00:05;;;;;;;65.05;37.72;;;12.20;99.90;;;;;;7372624;19;19918;-81
2023/05/12 02:02:40;;;;;;;63.65;36.05;;;12.20;99.90;;;;;;7374793;19;20356;-82
2023/05/12 02:05:07;;;;;;;56.25;37.38;;;12.20;99.90;;;;;;7371386;19;20103;-81
2023/05/12 02:07:33;;;;;;;70.25;38.92;;;12.20;99.90;;;;;;7370753;19;20026;-82
2023/05/12 02:09:59;;;;;;;65.10;38.03;;;12.20;99.90;;;;;;7369701;19;20034;-81
2023/05/12 02:12:26;;;;;;;61.83;36.58;;;12.20;99.90;;;;;;7370687;19;20115;-81
2023/05/12 02:14:52;;;;;;;67.35;39.97;;;12.20;99.90;;;;;;7372407;19;20021;-81
2023/05/12 02:17:18;;;;;;;58.78;37.58;;;12.30;99.90;;;;;;7368236;19;20598;-81
2023/05/12 02:19:46;;;;;;;65.75;39.78;;;12.30;99.90;;;;;;7373084;19;20022;-81
2023/05/12 02:22:15;;;;;;;64.80;37.58;;;12.30;99.90;;;;;;7371061;19;20026;-81
2023/05/12 02:24:42;;;;;;;66.85;39.97;;;12.20;99.90;;;;;;7372284;19;20018;-82
2023/05/12 02:27:08;;;;;;;61.47;38.30;;;12.20;99.90;;;;;;7366663;19;20019;-81
2023/05/12 02:29:36;;;;;;;69.28;42.17;;;12.30;99.90;;;;;;7368484;19;20518;-82
2023/05/12 02:32:04;;;;;;;71.35;41.22;;;12.30;99.90;;;;;;7369442;19;20074;-82
2023/05/12 02:34:31;;;;;;;64.28;40.03;;;12.30;99.90;;;;;;7368055;19;20029;-81
2023/05/12 02:36:57;;;;;;;65.93;40.33;;;12.20;99.90;;;;;;7368708;19;20026;-81
2023/05/12 02:39:24;;;;;;;74.25;42.60;;;12.30;99.90;;;;;;7370058;19;20490;-82
2023/05/12 02:41:50;;;;;;;79.13;43.25;;;12.30;99.90;;;;;;7365539;19;20018;-81
2023/05/12 02:44:17;;;;;;;69.30;40.75;;;12.30;99.90;;;;;;7369315;19;20030;-81
2023/05/12 02:46:47;;;;;;;69.35;41.00;;;12.30;99.90;;;;;;7370041;19;20026;-82
2023/05/12 02:49:13;;;;;;;78.60;42.40;;;12.30;99.90;;;;;;7368026;19;20033;-82
2023/05/12 02:51:40;;;;;;;78.70;43.22;;;12.30;99.90;;;;;;7367154;19;20014;-81
2023/05/12 02:54:06;;;;;;;74.00;42.22;;;12.30;99.90;;;;;;7365958;19;20014;-81
2023/05/12 02:56:32;;;;;;;71.05;42.40;;;12.30;99.90;;;;;;7367514;19;20139;-82
2023/05/12 02:58:58;;;;;;;71.30;41.88;;;12.30;99.90;;;;;;7367324;19;20026;-81
2023/05/12 03:01:24;;;;;;;86.82;44.60;;;12.30;99.90;;;;;;7368180;19;20026;-81
2023/05/12 03:03:51;;;;;;;86.50;45.88;;;12.30;99.90;;;;;;7373653;19;20026;-81
2023/05/12 03:06:17;;;;;;;78.88;44.88;;;12.30;99.90;;;;;;7375542;19;20015;-82
2023/05/12 03:08:44;;;;;;;80.15;44.38;;;12.30;99.90;;;;;;7377005;19;20022;-81
2023/05/12 03:11:10;;;;;;;81.28;43.65;;;12.30;99.90;;;;;;7376709;19;20022;-81
2023/05/12 03:13:36;;;;;;;81.43;45.92;;;12.30;99.90;;;;;;7378944;19;20041;-82
2023/05/12 03:16:02;;;;;;;73.80;42.25;;;12.30;99.90;;;;;;7374058;19;20026;-82
2023/05/12 03:18:29;;;;;;;88.55;46.53;;;12.30;99.90;;;;;;7376365;19;20042;-81
2023/05/12 03:20:56;;;;;;;95.82;46.92;;;12.30;99.90;;;;;;7377376;19;20774;-81
2023/05/12 03:23:24;;;;;;;89.05;45.72;;;12.30;99.90;;;;;;7376977;19;20122;-81
2023/05/12 03:25:50;;;;;;;88.40;46.95;;;12.30;99.90;;;;;;7378236;19;20114;-81
2023/05/12 03:28:17;;;;;;;91.45;47.00;;;12.30;99.90;;;;;;7376211;19;20019;-81
2023/05/12 03:30:43;;;;;;;91.70;46.83;;;12.30;99.90;;;;;;7377697;19;20018;-82
2023/05/12 03:33:09;;;;;;;94.47;47.55;;;12.30;99.90;;;;;;7375544;19;20022;-82
2023/05/12 03:35:36;;;;;;;97.85;48.67;;;12.30;99.90;;;;;;7376475;19;20526;-82
2023/05/12 03:38:03;;;;;;;89.85;47.45;;;12.30;99.90;;;;;;7374858;19;20018;-81
2023/05/12 03:40:29;;;;;;;96.43;49.17;;;12.30;99.90;;;;;;7376363;19;20015;-81
2023/05/12 03:42:56;;;;;;;92.55;45.88;;;12.30;99.90;;;;;;7377039;19;20043;-81
2023/05/12 03:45:22;;;;;;;93.55;49.00;;;12.30;99.90;;;;;;7375791;19;20043;-81
2023/05/12 03:47:49;;;;;;;94.57;47.65;;;12.30;99.90;;;;;;7374441;19;20015;-81
2023/05/12 03:50:15;;;;;;;99.85;48.80;;;12.30;99.90;;;;;;7374164;19;20027;-82
2023/05/12 03:52:41;;;;;;;105.70;50.15;;;12.30;99.90;;;;;;7376532;19;20015;-82
2023/05/12 03:55:08;;;;;;;110.43;49.78;;;12.30;99.90;;;;;;7375356;19;20495;-81
2023/05/12 03:57:35;;;;;;;96.65;48.15;;;12.30;99.90;;;;;;7375364;19;20022;-81
2023/05/12 04:00:06;;;;;;;102.55;47.55;;;12.30;99.90;;;;;;7373968;19;20071;-81
2023/05/12 04:02:39;;;;;;;98.80;47.58;;;12.40;99.90;;;;;;7377569;19;20527;-81
2023/05/12 04:05:07;;;;;;;104.53;49.45;;;12.30;99.90;;;;;;7376593;19;20029;-82
2023/05/12 04:07:33;;;;;;;110.45;51.33;;;12.40;99.90;;;;;;7376621;19;20347;-82
2023/05/12 04:09:59;;;;;;;98.63;49.05;;;12.40;99.90;;;;;;7375131;19;20015;-81
2023/05/12 04:12:26;;;;;;;102.47;49.65;;;12.40;99.90;;;;;;7372496;19;20022;-82
2023/05/12 04:14:52;;;;;;;87.70;47.13;;;12.40;99.90;;;;;;7376152;19;20864;-81
2023/05/12 04:17:18;;;;;;;82.03;46.60;;;12.40;99.90;;;;;;7371239;19;20021;-82
2023/05/12 04:19:45;;;;;;;87.78;46.50;;;12.50;99.90;;;;;;7374902;19;20026;-82
2023/05/12 04:22:12;;;;;;;90.22;47.22;;;12.50;99.90;;;;;;7375506;19;20022;-81
2023/05/12 04:24:39;;;;;;;95.78;49.92;;;12.50;99.90;;;;;;7376287;19;20014;-81
2023/05/12 04:27:06;;;;;;;94.82;48.72;;;12.50;99.90;;;;;;7373713;19;20030;-81
2023/05/12 04:29:32;;;;;;;85.13;47.03;;;12.50;99.90;;;;;;7372477;19;20015;-81
2023/05/12 04:31:59;;;;;;;78.78;45.45;;;12.50;99.90;;;;;;7372418;19;20022;-81
2023/05/12 04:34:25;;;;;;;77.22;45.47;;;12.60;99.90;;;;;;7373502;19;20022;-81
2023/05/12 04:36:52;;;;;;;79.55;46.42;;;12.60;99.90;;;;;;7372796;19;20018;-81
2023/05/12 04:39:19;;;;;;;72.85;45.08;;;12.60;99.90;;;;;;7373498;19;20015;-82
2023/05/12 04:41:45;;;;;;;78.68;45.78;;;12.70;99.90;;;;;;7372975;19;20019;-81
2023/05/12 04:44:12;;;;;;;72.28;44.83;;;12.70;99.90;;;;;;7371960;19;20018;-81
2023/05/12 04:46:39;;;;;;;72.63;43.35;;;12.70;99.90;;;;;;7374590;19;20534;-81
2023/05/12 04:49:06;;;;;;;73.25;43.65;;;12.70;99.90;;;;;;7373135;19;20014;-81
2023/05/12 04:51:33;;;;;;;66.80;42.40;;;12.70;99.90;;;;;;7375937;19;20018;-81
2023/05/12 04:54:00;;;;;;;63.72;41.03;;;12.80;99.90;;;;;;7369978;19;20018;-81
2023/05/12 04:56:26;;;;;;;67.47;42.88;;;12.70;99.90;;;;;;7372911;19;20010;-80
2023/05/12 04:58:52;;;;;;;63.53;41.65;;;12.80;99.90;;;;;;7373784;19;20018;-81
2023/05/12 05:01:19;;;;;;;61.03;40.83;;;12.80;99.90;;;;;;7373817;19;20025;-81
2023/05/12 05:03:46;;;;;;;62.80;41.08;;;12.80;99.90;;;;;;7377226;19;20025;-80
2023/05/12 05:06:12;;;;;;;67.72;40.90;;;12.80;99.90;;;;;;7374094;19;20022;-80
2023/05/12 05:08:39;;;;;;;66.45;41.38;;;12.80;99.90;;;;;;7374558;19;20499;-80
2023/05/12 05:11:05;;;;;;;62.90;40.83;;;12.80;99.90;;;;;;7371989;19;20022;-80
2023/05/12 05:13:32;;;;;;;64.00;40.33;;;12.80;99.90;;;;;;7375646;19;20025;-79
2023/05/12 05:15:58;;;;;;;64.57;41.60;;;12.80;99.90;;;;;;7372223;19;20010;-80
2023/05/12 05:18:25;;;;;;;67.18;39.80;;;12.90;99.90;;;;;;7375320;19;20098;-81
2023/05/12 05:20:54;;;;;;;60.85;39.22;;;12.90;99.90;;;;;;7372121;19;20043;-81
2023/05/12 05:23:23;;;;;;;69.30;42.92;;;12.90;99.90;;;;;;7377848;19;20033;-82
2023/05/12 05:25:50;;;;;;;65.47;40.30;;;12.90;99.90;;;;;;7374132;19;20025;-82
2023/05/12 05:28:17;;;;;;;60.88;39.90;;;13.00;99.90;;;;;;7370942;19;20025;-81
2023/05/12 05:30:43;;;;;;;59.75;39.20;;;13.00;99.90;;;;;;7374204;19;20414;-82
2023/05/12 05:33:11;;;;;;;59.50;40.15;;;13.00;99.90;;;;;;7367649;19;20034;-82
2023/05/12 05:35:38;;;;;;;72.50;41.63;;;13.00;99.90;;;;;;7367429;19;20018;-82
2023/05/12 05:38:05;;;;;;;69.53;40.75;;;13.10;99.90;;;;;;7368988;19;20336;-82
2023/05/12 05:40:31;;;;;;;63.97;41.95;;;13.10;99.90;;;;;;7369897;19;20028;-82
2023/05/12 05:42:57;;;;;;;71.05;41.40;;;13.10;99.90;;;;;;7368772;19;20015;-82
2023/05/12 05:45:24;;;;;;;68.43;42.42;;;13.10;99.90;;;;;;7370656;19;20022;-83
2023/05/12 05:47:52;;;;;;;64.70;40.88;;;13.10;99.90;;;;;;7371781;19;20038;-83
2023/05/12 05:50:19;;;;;;;67.47;39.78;;;13.10;99.90;;;;;;7369661;19;20022;-82
2023/05/12 05:52:46;;;;;;;69.47;41.65;;;13.10;99.90;;;;;;7370254;19;20475;-82
2023/05/12 05:55:13;;;;;;;62.78;39.00;;;13.10;99.90;;;;;;7366937;19;20803;-82
2023/05/12 05:57:39;;;;;;;65.07;40.60;;;13.10;99.90;;;;;;7369628;19;20025;-83
2023/05/12 06:00:09;;;;;;;64.18;41.30;;;13.10;99.90;;;;;;7370734;19;20082;-83
2023/05/12 06:02:45;;;;;;;65.25;40.35;;;13.20;99.90;;;;;;7368377;19;20148;-82
2023/05/12 06:05:16;;;;;;;65.68;41.17;;;13.20;99.90;;;;;;7370952;19;20452;-83
2023/05/12 06:07:43;;;;;;;68.13;39.30;;;13.30;99.90;;;;;;7368674;19;20046;-83
2023/05/12 06:10:09;;;;;;;63.08;40.78;;;13.30;99.90;;;;;;7368111;19;20035;-83
2023/05/12 06:12:35;;;;;;;61.75;40.17;;;13.30;99.90;;;;;;7367911;19;20018;-82
2023/05/12 06:15:02;;;;;;;61.08;40.72;;;13.30;99.90;;;;;;7367790;19;20142;-82
2023/05/12 06:17:28;;;;;;;60.65;39.53;;;13.40;99.90;;;;;;7367742;19;20019;-82
2023/05/12 06:19:54;;;;;;;62.05;40.13;;;13.40;99.90;;;;;;7364789;19;20019;-82
2023/05/12 06:22:21;;;;;;;60.13;39.80;;;13.40;99.90;;;;;;7369153;19;20608;-83
2023/05/12 06:24:47;;;;;;;55.67;38.70;;;13.40;99.90;;;;;;7366471;19;20018;-83
2023/05/12 06:27:16;;;;;;;62.22;39.65;;;13.40;99.90;;;;;;7367767;19;20788;-84
2023/05/12 06:29:43;;;;;;;64.65;40.63;;;13.50;99.90;;;;;;7370629;19;20022;-84
2023/05/12 06:32:09;;;;;;;59.20;40.85;;;13.60;99.90;;;;;;7366763;19;20491;-84
2023/05/12 06:34:35;;;;;;;66.50;40.03;;;13.50;99.90;;;;;;7370898;19;20011;-84
2023/05/12 06:37:02;;;;;;;59.33;40.25;;;13.50;99.90;;;;;;7369089;19;20018;-83
2023/05/12 06:39:29;;;;;;;59.28;39.33;;;13.60;99.90;;;;;;7374212;19;20024;-84
2023/05/12 06:41:56;;;;;;;58.95;38.50;;;13.60;99.90;;;;;;7374846;19;20094;-84
2023/05/12 06:44:22;;;;;;;56.38;39.67;;;13.70;99.90;;;;;;7376219;19;20624;-87
2023/05/12 06:46:52;;;;;;;57.78;41.22;;;13.60;99.90;;;;;;7373322;19;20018;-83
2023/05/12 06:49:20;;;;;;;62.90;41.85;;;13.60;99.90;;;;;;7374363;19;20097;-83
2023/05/12 06:51:47;;;;;;;61.95;41.08;;;13.70;99.90;;;;;;7372900;19;20636;-84
2023/05/12 06:54:14;;;;;;;59.75;40.88;;;13.60;99.90;;;;;;7375092;19;20028;-84
2023/05/12 06:56:40;;;;;;;66.40;40.80;;;13.70;99.90;;;;;;7371477;19;20030;-84
2023/05/12 06:59:06;;;;;;;53.78;39.17;;;13.70;99.90;;;;;;7375286;19;20022;-83
2023/05/12 07:01:32;;;;;;;52.40;38.35;;;13.70;99.90;;;;;;7373236;19;20491;-83
2023/05/12 07:03:59;;;;;;;58.03;39.50;;;13.80;99.90;;;;;;7374345;19;20018;-84
2023/05/12 07:06:26;;;;;;;55.72;39.97;;;13.90;99.90;;;;;;7376729;19;20019;-84
2023/05/12 07:08:53;;;;;;;55.13;40.25;;;13.90;99.90;;;;;;7375702;19;20048;-84
2023/05/12 07:11:20;;;;;;;56.75;41.10;;;14.00;99.90;;;;;;7372213;19;20653;-84
2023/05/12 07:13:49;;;;;;;52.78;38.75;;;13.90;99.90;;;;;;7372955;19;20082;-86
2023/05/12 07:16:17;;;;;;;56.47;39.65;;;14.00;99.90;;;;;;7371463;19;20066;-83
2023/05/12 07:18:44;;;;;;;51.80;37.10;;;14.10;99.90;;;;;;7373900;19;20577;-83
2023/05/12 07:21:11;;;;;;;58.03;42.55;;;14.10;99.90;;;;;;7371425;19;20244;-85
2023/05/12 07:23:38;;;;;;;55.58;40.20;;;14.20;99.90;;;;;;7371601;19;20027;-84
2023/05/12 07:26:05;;;;;;;52.92;39.10;;;14.30;99.90;;;;;;7370371;19;20018;-84
2023/05/12 07:28:36;;;;;;;58.78;41.47;;;14.30;99.90;;;;;;7366416;19;20018;-85
2023/05/12 07:31:04;;;;;;;51.22;39.35;;;14.50;99.90;;;;;;7370702;19;20019;-84
2023/05/12 07:33:30;;;;;;;51.72;38.53;;;14.60;99.90;;;;;;7373201;19;20019;-85
2023/05/12 07:35:57;;;;;;;52.85;39.10;;;14.70;99.90;;;;;;7373290;19;20817;-84
2023/05/12 07:38:23;;;;;;;48.97;40.78;;;14.80;99.90;;;;;;7372802;19;20022;-83
2023/05/12 07:40:50;;;;;;;50.47;38.72;;;15.00;99.90;;;;;;7368431;19;20018;-84
2023/05/12 07:43:17;;;;;;;51.97;40.03;;;15.00;99.90;;;;;;7369591;19;20022;-84
2023/05/12 07:45:44;;;;;;;45.85;35.80;;;15.20;99.90;;;;;;7371702;19;20047;-84
2023/05/12 07:48:11;;;;;;;44.75;38.70;;;15.20;99.90;;;;;;7375525;19;20039;-83
2023/05/12 07:50:37;;;;;;;46.78;38.17;;;15.30;99.90;;;;;;7376447;19;20010;-87
2023/05/12 07:53:04;;;;;;;41.90;35.38;;;15.40;99.90;;;;;;7369228;19;20375;-83
2023/05/12 07:55:34;;;;;;;45.80;39.72;;;15.50;99.90;;;;;;7373012;19;20649;-84
2023/05/12 07:58:01;;;;;;;46.17;38.90;;;15.30;99.90;;;;;;7377178;19;20022;-84
2023/05/12 08:00:27;;;;;;;41.97;35.95;;;15.30;99.90;;;;;;7375017;19;20018;-84
2023/05/12 08:02:54;;;;;;;36.67;31.98;;;15.30;99.90;;;;;;7372281;19;20019;-83
2023/05/12 08:05:21;;;;;;;54.88;48.85;;;15.40;99.90;;;;;;7356500;19;20025;-83
2023/05/12 08:07:47;;;;;;;35.22;31.42;;;15.40;99.90;;;;;;7374417;19;20010;-83
2023/05/12 08:10:13;;;;;;;41.03;34.75;;;15.40;99.90;;;;;;7372305;19;20022;-84
2023/05/12 08:12:40;;;;;;;37.42;33.38;;;15.50;99.90;;;;;;7370078;19;20030;-83
2023/05/12 08:15:07;;;;;;;39.33;34.58;;;15.40;99.90;;;;;;7370338;19;20030;-83
2023/05/12 08:17:34;;;;;;;35.53;31.70;;;15.40;99.90;;;;;;7373688;19;20030;-83
2023/05/12 08:20:02;;;;;;;33.88;30.27;;;15.50;99.90;;;;;;7370500;19;20022;-83
2023/05/12 08:22:29;;;;;;;34.08;30.48;;;15.70;99.90;;;;;;7372780;19;20050;-84
2023/05/12 08:24:56;;;;;;;35.88;32.10;;;15.70;99.90;;;;;;7373818;19;20046;-83
2023/05/12 08:27:22;;;;;;;31.88;28.77;;;15.80;99.90;;;;;;7371482;19;20022;-83
2023/05/12 08:29:48;;;;;;;33.22;29.15;;;16.00;99.90;;;;;;7376655;19;20019;-83
2023/05/12 08:32:15;;;;;;;31.98;28.55;;;16.00;99.90;;;;;;7371156;19;20090;-83
2023/05/12 08:34:41;;;;;;;33.08;29.65;;;16.10;99.90;;;;;;7376363;19;20022;-83
2023/05/12 08:37:08;;;;;;;39.58;35.42;;;16.00;99.90;;;;;;7372158;19;20478;-83
2023/05/12 08:39:34;;;;;;;40.55;36.40;;;16.00;99.90;;;;;;7372897;19;20018;-82
2023/05/12 08:42:05;;;;;;;31.85;28.58;;;16.00;99.90;;;;;;7371684;19;20076;-83
2023/05/12 08:44:32;;;;;;;34.33;30.75;;;16.20;99.90;;;;;;7373606;19;20022;-83
2023/05/12 08:47:00;;;;;;;29.40;26.45;;;16.20;99.90;;;;;;7372546;19;20023;-84
2023/05/12 08:49:30;;;;;;;28.90;26.00;;;16.40;99.90;;;;;;7370575;19;20015;-83
2023/05/12 08:51:58;;;;;;;30.95;27.85;;;16.40;99.90;;;;;;7371687;19;20368;-83
2023/05/12 08:54:27;;;;;;;30.42;27.25;;;16.60;99.90;;;;;;7371714;19;20956;-83
2023/05/12 08:56:54;;;;;;;26.38;23.88;;;16.80;99.90;;;;;;7371248;19;20022;-82
2023/05/12 08:59:22;;;;;;;27.35;24.63;;;16.90;99.90;;;;;;7371939;19;20124;-82
2023/05/12 09:01:49;;;;;;;38.63;34.42;;;17.30;99.90;;;;;;7372940;19;20023;-84
2023/05/12 09:04:17;;;;;;;30.45;27.33;;;17.50;99.90;;;;;;7374934;19;20082;-84
2023/05/12 09:06:44;;;;;;;31.90;28.70;;;17.90;99.90;;;;;;7374787;19;20023;-83
2023/05/12 09:09:13;;;;;;;29.75;26.85;;;17.90;99.90;;;;;;7371189;19;20048;-83
2023/05/12 09:11:41;;;;;;;26.83;24.08;;;18.20;99.90;;;;;;7369508;19;20026;-83
2023/05/12 09:14:35;;;;;;;25.17;22.85;;;18.50;99.90;;;;;;7374419;19;20049;-83
2023/05/12 09:17:03;;;;;;;27.90;25.23;;;18.50;99.90;;;;;;7365708;19;20051;-84
2023/05/12 09:19:30;;;;;;;36.38;32.90;;;18.70;99.90;;;;;;7373567;19;20022;-82
2023/05/12 09:21:57;;;;;;;27.25;24.67;;;18.70;99.90;;;;;;7366534;19;20018;-83
2023/05/12 09:24:36;;;;;;;25.90;23.58;;;19.10;99.90;;;;;;7370937;19;20026;-82
2023/05/12 09:27:03;;;;;;;34.33;31.13;;;19.30;99.90;;;;;;7372744;19;20018;-83
2023/05/12 09:29:31;;;;;;;22.13;20.02;;;19.50;99.90;;;;;;7365747;19;20036;-85
2023/05/12 09:32:00;;;;;;;25.75;23.30;;;19.80;99.90;;;;;;7371949;19;20029;-84
2023/05/12 09:34:37;;;;;;;20.00;18.20;;;20.00;99.90;;;;;;7370221;19;20014;-85
2023/05/12 09:37:08;;;;;;;21.52;19.65;;;19.90;99.90;;;;;;7369660;19;20029;-84
2023/05/12 09:39:35;;;;;;;;;;;19.90;99.90;;;;;;7373785;19;20021;-85
2023/05/12 09:42:01;;;;;;;20.15;18.25;;;19.80;99.90;;;;;;7372000;19;20359;-85
2023/05/12 09:44:28;;;;;;;27.27;24.88;;;19.90;99.90;;;;;;7353245;19;20026;-87
2023/05/12 09:46:55;;;;;;;22.63;20.52;;;20.10;99.90;;;;;;7372391;19;20524;-84
2023/05/12 09:49:26;;;;;;;18.35;16.75;;;20.40;99.90;;;;;;7366655;19;20015;-85
2023/05/12 09:51:59;;;;;;;19.35;17.65;;;20.50;99.90;;;;;;7369717;19;20025;-85
2023/05/12 09:54:30;;;;;;;20.33;18.52;;;20.80;99.90;;;;;;7362373;19;20098;-86
2023/05/12 09:57:04;;;;;;;28.48;25.65;;;20.90;99.90;;;;;;7363669;19;20019;-85
2023/05/12 09:59:37;;;;;;;16.23;14.82;;;21.40;99.90;;;;;;7364279;19;20045;-83
2023/05/12 10:02:06;;;;;;;16.08;14.57;;;22.40;99.90;;;;;;7367990;19;20055;-83
2023/05/12 10:04:55;;;;;;;19.77;17.90;;;22.90;99.90;;;;;;7365275;19;20015;-83
2023/05/12 10:07:26;;;;;;;12.38;10.88;;;23.20;99.90;;;;;;7369946;19;20039;-83
2023/05/12 10:09:54;;;;;;;;;;;23.60;99.90;;;;;;7366149;19;20030;-83
2023/05/12 10:12:23;;;;;;;20.02;18.27;;;23.60;99.90;;;;;;7369745;19;19929;-83
2023/05/12 10:14:50;;;;;;;12.52;11.43;;;23.80;99.90;;;;;;7369191;19;20018;-83
2023/05/12 10:17:19;;;;;;;12.70;11.60;;;24.20;99.90;;;;;;7376378;19;20018;-83
2023/05/12 10:19:48;;;;;;;15.10;13.77;;;24.10;99.90;;;;;;7374903;19;20375;-83
2023/05/12 10:22:18;;;;;;;20.08;18.27;;;24.50;99.90;;;;;;7376065;19;20014;-84
2023/05/12 10:24:48;;;;;;;12.02;10.82;;;24.80;99.90;;;;;;7374355;19;20478;-83
2023/05/12 10:27:16;;;;;;;12.25;11.10;;;24.80;99.90;;;;;;7372358;19;20018;-85
2023/05/12 10:29:46;;;;;;;13.63;12.32;;;24.50;99.90;;;;;;7370867;19;20026;-83
2023/05/12 10:32:18;;;;;;;8.70;7.90;;;24.40;99.90;;;;;;7370146;19;20014;-84
2023/05/12 10:34:44;;;;;;;12.40;11.13;;;24.30;99.90;;;;;;7370352;19;20018;-84
2023/05/12 10:37:12;;;;;;;22.50;19.83;;;24.30;99.90;;;;;;7372248;19;20022;-84
2023/05/12 10:39:50;;;;;;;11.20;10.15;;;24.80;99.90;;;;;;7374603;19;20486;-83
2023/05/12 10:42:24;;;;;;;15.05;13.73;;;24.90;99.90;;;;;;7375134;19;20029;-84
2023/05/12 10:44:55;;;;;;;10.45;9.43;;;25.40;99.90;;;;;;7375060;19;20776;-85
2023/05/12 10:47:34;;;;;;;12.63;10.63;;;25.40;99.90;;;;;;7376889;19;20025;-85
2023/05/12 10:50:00;;;;;;;14.77;13.40;;;25.70;96.00;;;;;;7376806;19;20035;-84
2023/05/12 10:52:27;;;;;;;10.43;9.52;;;25.30;99.90;;;;;;7373028;19;20027;-84
2023/05/12 10:55:01;;;;;;;17.10;15.60;;;25.30;99.90;;;;;;7374766;19;20119;-85
2023/05/12 10:57:29;;;;;;;13.15;11.90;;;25.20;97.70;;;;;;7375873;19;20022;-84
2023/05/12 11:00:00;;;;;;;16.13;14.73;;;25.60;99.90;;;;;;7376500;19;20018;-85
2023/05/12 11:02:29;;;;;;;;;;;25.70;99.90;;;;;;7375140;19;20026;-84
2023/05/12 11:04:58;;;;;;;13.30;12.02;;;26.20;81.90;;;;;;7373195;19;19938;-83
2023/05/12 11:07:30;;;;;;;14.25;12.93;;;25.50;92.80;;;;;;7373716;19;20074;-83
2023/05/12 11:10:00;;;;;;;12.80;11.55;;;25.70;86.70;;;;;;7373981;19;20022;-83
2023/05/12 11:12:31;;;;;;;17.42;15.85;;;26.30;85.60;;;;;;7378371;19;20049;-83
2023/05/12 11:15:00;;;;;;;10.63;9.50;;;26.10;86.70;;;;;;7367881;19;20018;-83
2023/05/12 11:17:26;;;;;;;16.02;14.52;;;26.40;75.20;;;;;;7374711;19;20754;-83
2023/05/12 11:19:53;;;;;;;17.23;15.68;;;25.70;87.60;;;;;;7371395;19;20022;-84
2023/05/12 11:22:21;;;;;;;14.95;13.65;;;25.70;92.10;;;;;;7372857;19;20026;-84
2023/05/12 11:24:52;;;;;;;16.83;15.25;;;25.80;93.30;;;;;;7365980;19;20029;-84
2023/05/12 11:27:22;;;;;;;9.95;9.02;;;25.50;91.70;;;;;;7375128;19;20029;-85
2023/05/12 11:29:59;;;;;;;10.45;9.55;;;26.00;71.30;;;;;;7368121;19;20375;-88
2023/05/12 11:32:37;;;;;;;9.70;8.70;;;26.40;69.40;;;;;;7368916;19;20015;-86
2023/05/12 11:36:41;;;;;;;18.98;17.25;;;26.60;71.70;;;;;;7367349;19;20043;-86
2023/05/12 11:45:17;;;;;;;12.23;10.95;;;26.90;69.20;;;;;;7373793;19;20019;-87
2023/05/12 11:48:14;;;;;;;13.00;11.70;;;27.40;64.70;;;;;;7371549;19;20469;-86
2023/05/12 11:52:07;;;;;;;17.58;15.95;;;27.30;62.40;;;;;;7372581;19;20144;-86
2023/05/12 11:56:29;;;;;;;8.93;8.10;;;27.60;59.00;;;;;;7367578;19;20044;-85
2023/05/12 11:59:36;;;;;;;16.92;15.35;;;27.90;58.00;;;;;;7363750;19;20034;-85
2023/05/12 12:02:19;;;;;;;10.30;9.25;;;27.60;58.60;;;;;;7366773;19;20019;-84
2023/05/12 12:04:45;;;;;;;16.58;15.13;;;27.40;58.80;;;;;;7361837;19;20010;-85
2023/05/12 12:07:15;;;;;;;12.13;10.90;;;27.50;58.80;;;;;;7355180;19;20122;-85
2023/05/12 12:09:48;;;;;;;18.85;17.23;;;27.50;57.80;;;;;;7364009;19;20018;-86
2023/05/12 12:12:15;;;;;;;10.63;9.57;;;27.80;58.20;;;;;;7368490;19;20021;-85
2023/05/12 12:14:41;;;;;;;12.23;11.13;;;27.80;55.60;;;;;;7364465;19;20025;-85
2023/05/12 12:17:08;;;;;;;10.48;7.43;;;28.00;56.10;;;;;;7364170;19;20164;-85
2023/05/12 12:19:34;;;;;;;7.57;6.72;;;28.10;56.20;;;;;;7371038;19;20022;-86
2023/05/12 12:22:00;;;;;;;14.40;13.07;;;28.20;55.30;;;;;;7369366;19;20087;-86
2023/05/12 12:24:26;;;;;;;13.55;12.23;;;28.30;55.70;;;;;;7368823;19;20048;-88
2023/05/12 12:26:53;;;;;;;7.97;5.85;;;28.50;56.30;;;;;;7367981;19;20030;-86
2023/05/12 12:29:19;;;;;;;5.53;5.03;;;28.50;50.40;;;;;;7368727;19;20026;-85
2023/05/12 12:31:46;;;;;;;5.95;5.38;;;28.20;50.90;;;;;;7367156;19;20670;-85
2023/05/12 12:34:12;;;;;;;9.30;5.55;;;28.20;51.80;;;;;;7369933;19;20030;-85
2023/05/12 12:36:45;;;;;;;9.02;8.18;;;28.50;51.50;;;;;;7364712;19;20023;-85
2023/05/12 12:39:12;;;;;;;9.03;8.13;;;28.60;53.20;;;;;;7360238;19;21432;-85
2023/05/12 12:41:43;;;;;;;13.52;11.95;;;28.70;53.10;;;;;;7367080;19;20025;-85
2023/05/12 12:44:12;;;;;;;8.05;7.25;;;28.80;53.00;;;;;;7360253;19;20090;-85